Time;durP1;ratioP1;P1;durP2;ratioP2;P2;SDS_P1;SDS_P2;PMS_P1;PMS_P2;Temp;Humidity;BMP_temperature;BMP_pressure;BME280_temperature;BME280_humidity;BME280_pressure;Samples;Min_cycle;Max_cycle;Signal;HPM_P1;HPM_P2
2023/03/26 00:01:20;;;;;;;12.18;1.95;;;8.20;99.90;;;;;;5075937;28;20079;-90
2023/03/26 00:03:52;;;;;;;7.57;1.65;;;8.20;99.90;;;;;;5092234;28;20043;-90
2023/03/26 00:06:20;;;;;;;6.85;1.45;;;8.10;99.90;;;;;;5076314;28;20085;-90
2023/03/26 00:08:46;;;;;;;10.18;1.48;;;8.10;99.90;;;;;;5075074;28;20036;-90
2023/03/26 00:11:14;;;;;;;9.82;1.73;;;8.20;99.90;;;;;;5092694;28;20097;-90
2023/03/26 00:13:42;;;;;;;12.85;1.92;;;8.10;99.90;;;;;;5075723;28;20497;-89
2023/03/26 00:16:09;;;;;;;4.75;1.40;;;8.10;99.90;;;;;;5074425;28;20040;-90
2023/03/26 00:18:36;;;;;;;4.63;1.20;;;8.10;99.90;;;;;;5074911;28;20042;-90
2023/03/26 00:21:04;;;;;;;9.48;1.27;;;8.00;99.90;;;;;;5075335;28;20039;-90
2023/03/26 00:23:31;;;;;;;11.55;2.25;;;8.00;99.90;;;;;;5074258;28;20082;-90
2023/03/26 00:25:57;;;;;;;7.03;1.60;;;8.10;99.90;;;;;;5075895;28;20105;-90
2023/03/26 00:28:25;;;;;;;9.43;1.73;;;8.10;99.90;;;;;;5091281;28;20127;-89
2023/03/26 00:30:58;;;;;;;7.43;1.85;;;8.10;99.90;;;;;;5072193;28;20087;-89
2023/03/26 00:33:24;;;;;;;11.10;1.95;;;8.10;99.90;;;;;;5059240;28;20523;-90
2023/03/26 00:35:57;;;;;;;9.07;1.60;;;8.10;99.90;;;;;;5075069;28;20032;-90
2023/03/26 00:38:24;;;;;;;6.00;1.92;;;8.10;99.90;;;;;;5075372;28;20036;-90
2023/03/26 00:40:50;;;;;;;8.65;1.58;;;8.10;99.90;;;;;;5091754;28;20042;-90
2023/03/26 00:43:17;;;;;;;7.88;1.42;;;8.00;99.90;;;;;;5075737;28;20170;-91
2023/03/26 00:45:45;;;;;;;10.05;2.33;;;8.10;99.90;;;;;;5074895;28;20036;-90
2023/03/26 00:48:11;;;;;;;11.18;2.08;;;8.00;99.90;;;;;;5073475;28;20066;-90
2023/03/26 00:50:38;;;;;;;4.78;1.35;;;8.00;99.90;;;;;;5075213;28;20040;-90
2023/03/26 00:53:04;;;;;;;6.28;1.85;;;8.00;99.90;;;;;;5074253;28;20672;-91
2023/03/26 00:55:29;;;;;;;8.43;2.38;;;8.00;99.90;;;;;;5075226;28;20101;-91
2023/03/26 00:57:55;;;;;;;10.90;2.03;;;7.90;99.90;;;;;;5073806;28;20494;-90
2023/03/26 01:00:33;;;;;;;12.18;1.83;;;7.90;99.90;;;;;;5074918;28;20040;-91
2023/03/26 01:03:01;;;;;;;7.10;1.60;;;7.90;99.90;;;;;;5074688;28;20501;-91
2023/03/26 01:06:03;;;;;;;8.20;1.40;;;7.80;99.90;;;;;;5073995;28;20081;-90
2023/03/26 01:08:32;;;;;;;8.25;1.42;;;7.80;99.90;;;;;;5070990;28;20108;-91
2023/03/26 01:11:06;;;;;;;7.75;1.38;;;7.70;99.90;;;;;;5090707;28;20032;-91
2023/03/26 01:13:35;;;;;;;6.90;1.40;;;7.70;99.90;;;;;;5074757;28;20036;-89
2023/03/26 01:16:01;;;;;;;10.57;1.75;;;7.70;99.90;;;;;;5073564;28;20449;-90
2023/03/26 01:18:32;;;;;;;6.22;1.52;;;7.70;99.90;;;;;;5073811;28;20038;-90
2023/03/26 01:21:04;;;;;;;7.13;1.45;;;7.70;99.90;;;;;;5074228;28;20047;-90
2023/03/26 01:23:58;;;;;;;8.85;1.52;;;7.60;99.90;;;;;;5074179;28;20036;-91
2023/03/26 01:26:29;;;;;;;8.07;1.23;;;7.60;99.90;;;;;;5065238;28;20055;-90
2023/03/26 01:29:00;;;;;;;7.97;1.40;;;7.50;99.90;;;;;;5090615;28;20435;-90
2023/03/26 01:31:42;;;;;;;6.50;1.80;;;7.40;99.90;;;;;;5073803;28;20032;-90
2023/03/26 01:34:37;;;;;;;5.47;1.40;;;7.30;99.90;;;;;;5072877;28;20046;-90
2023/03/26 01:37:29;;;;;;;7.45;1.63;;;7.30;99.90;;;;;;5069133;28;20152;-90
2023/03/26 01:40:08;;;;;;;7.57;1.35;;;7.30;99.90;;;;;;5073035;28;20570;-90
2023/03/26 01:43:06;;;;;;;7.20;1.55;;;7.20;99.90;;;;;;5090759;28;20118;-90
2023/03/26 01:45:37;;;;;;;11.48;1.58;;;7.20;99.90;;;;;;5035048;28;20390;-89
2023/03/26 01:48:03;;;;;;;8.65;1.70;;;7.10;99.90;;;;;;5090631;28;20032;-88
2023/03/26 01:50:29;;;;;;;8.63;1.80;;;7.20;99.90;;;;;;5090653;28;20093;-90
2023/03/26 01:52:54;;;;;;;6.78;1.52;;;7.20;99.90;;;;;;5072594;28;20040;-90
2023/03/26 01:55:25;;;;;;;8.90;1.50;;;7.20;99.90;;;;;;5074186;28;20123;-90
2023/03/26 01:58:06;;;;;;;5.88;1.48;;;7.20;99.90;;;;;;5073793;28;20044;-91
2023/03/26 02:01:00;;;;;;;5.47;1.55;;;7.30;99.90;;;;;;5073001;28;20119;-91
2023/03/26 02:03:32;;;;;;;8.25;1.65;;;7.30;99.90;;;;;;5079878;28;20386;-90
2023/03/26 02:06:24;;;;;;;7.32;1.58;;;7.40;99.90;;;;;;5089844;28;20048;-89
2023/03/26 02:09:00;;;;;;;8.38;1.77;;;7.40;99.90;;;;;;5074147;28;20040;-90
2023/03/26 02:11:25;;;;;;;8.85;1.63;;;7.40;99.90;;;;;;5073298;28;20040;-91
2023/03/26 02:13:52;;;;;;;5.05;1.30;;;7.50;99.90;;;;;;5073388;28;20132;-90
2023/03/26 02:16:19;;;;;;;9.85;2.13;;;7.50;99.90;;;;;;5073707;28;20036;-91
2023/03/26 02:18:50;;;;;;;6.15;1.30;;;7.50;99.90;;;;;;5072522;28;20118;-90
2023/03/26 02:21:22;;;;;;;6.90;1.35;;;7.50;99.90;;;;;;5074210;28;20032;-90
2023/03/26 02:23:56;;;;;;;11.45;2.20;;;7.50;99.90;;;;;;5089814;28;20028;-90
2023/03/26 02:26:22;;;;;;;5.30;1.42;;;7.50;99.90;;;;;;5074021;28;20047;-91
2023/03/26 02:28:48;;;;;;;6.75;1.48;;;7.50;99.90;;;;;;5072827;28;20446;-91
2023/03/26 02:31:14;;;;;;;7.70;1.38;;;7.50;99.90;;;;;;5090724;28;20565;-91
2023/03/26 02:33:43;;;;;;;7.18;1.48;;;7.50;99.90;;;;;;5073373;28;20032;-91
2023/03/26 02:36:12;;;;;;;5.70;1.40;;;7.50;99.90;;;;;;5085966;28;20130;-91
2023/03/26 02:38:38;;;;;;;8.48;1.65;;;7.50;99.90;;;;;;5073434;28;20048;-91
2023/03/26 02:41:04;;;;;;;8.07;1.48;;;7.50;99.90;;;;;;5089667;28;20054;-90
2023/03/26 02:43:30;;;;;;;7.38;1.80;;;7.50;99.90;;;;;;5072921;28;20028;-91
2023/03/26 02:45:57;;;;;;;11.13;1.92;;;7.50;99.90;;;;;;5072711;28;20036;-90
2023/03/26 02:48:22;;;;;;;5.55;1.30;;;7.50;99.90;;;;;;5072973;28;20121;-90
2023/03/26 02:50:49;;;;;;;7.63;1.45;;;7.60;99.90;;;;;;5073233;28;20090;-90
2023/03/26 02:53:16;;;;;;;11.40;1.75;;;7.60;99.90;;;;;;5072312;28;20165;-90
2023/03/26 02:55:41;;;;;;;7.70;2.10;;;7.60;99.90;;;;;;5073508;28;20051;-90
2023/03/26 02:58:07;;;;;;;10.98;1.67;;;7.60;99.90;;;;;;5073181;28;20413;-90
2023/03/26 03:00:33;;;;;;;5.30;1.88;;;7.60;99.90;;;;;;5072465;28;20146;-91
2023/03/26 03:03:03;;;;;;;4.60;1.65;;;7.60;99.90;;;;;;5073343;28;20040;-90
2023/03/26 03:05:30;;;;;;;10.95;1.73;;;7.60;99.90;;;;;;5072750;28;20036;-90
2023/03/26 03:07:57;;;;;;;7.80;2.08;;;7.60;99.90;;;;;;5072520;28;20032;-89
2023/03/26 03:10:27;;;;;;;8.93;1.50;;;7.50;99.90;;;;;;5072965;28;20071;-90
2023/03/26 03:12:52;;;;;;;12.45;2.17;;;7.50;99.90;;;;;;5075215;28;20074;-90
2023/03/26 03:15:19;;;;;;;8.50;1.50;;;7.50;99.90;;;;;;5093896;28;20044;-90
2023/03/26 03:17:45;;;;;;;7.32;1.75;;;7.50;99.90;;;;;;5075707;28;20050;-90
2023/03/26 03:20:11;;;;;;;6.78;1.42;;;7.50;99.90;;;;;;5077017;28;20119;-90
2023/03/26 03:22:36;;;;;;;6.20;1.48;;;7.50;99.90;;;;;;5092785;28;20457;-89
2023/03/26 03:25:04;;;;;;;5.90;1.63;;;7.40;99.90;;;;;;5092792;28;20039;-89
2023/03/26 03:27:30;;;;;;;8.27;1.80;;;7.40;99.90;;;;;;5075754;28;20397;-89
2023/03/26 03:29:57;;;;;;;9.85;1.70;;;7.40;99.90;;;;;;5076048;28;20093;-90
2023/03/26 03:32:23;;;;;;;8.80;1.95;;;7.40;99.90;;;;;;5093537;28;20043;-90
2023/03/26 03:34:49;;;;;;;7.78;2.30;;;7.40;99.90;;;;;;5075444;28;20126;-90
2023/03/26 03:37:16;;;;;;;9.25;1.63;;;7.40;99.90;;;;;;5076332;28;20044;-90
2023/03/26 03:39:42;;;;;;;10.52;2.35;;;7.40;99.90;;;;;;5092545;28;20032;-90
2023/03/26 03:42:08;;;;;;;6.68;2.00;;;7.30;99.90;;;;;;5076095;28;20032;-90
2023/03/26 03:44:34;;;;;;;6.80;1.70;;;7.30;99.90;;;;;;5076390;28;20598;-90
2023/03/26 03:46:59;;;;;;;6.72;1.45;;;7.30;99.90;;;;;;5075065;28;20040;-90
2023/03/26 03:49:25;;;;;;;8.13;2.20;;;7.20;99.90;;;;;;5076364;28;20055;-89
2023/03/26 03:51:51;;;;;;;8.15;1.95;;;7.20;99.90;;;;;;5075973;28;20055;-90
2023/03/26 03:54:16;;;;;;;9.07;1.85;;;7.20;99.90;;;;;;5092180;28;20032;-90
2023/03/26 03:56:44;;;;;;;6.78;2.00;;;7.20;99.90;;;;;;5076024;28;20044;-91
2023/03/26 03:59:10;;;;;;;10.60;2.05;;;7.20;99.90;;;;;;5074923;28;20036;-91
2023/03/26 04:01:36;;;;;;;10.88;2.10;;;7.10;99.90;;;;;;5076192;28;20028;-91
2023/03/26 04:04:02;;;;;;;8.63;1.90;;;7.10;99.90;;;;;;5074793;28;20043;-91
2023/03/26 04:06:29;;;;;;;5.80;1.75;;;7.10;99.90;;;;;;5075103;28;20040;-90
2023/03/26 04:08:55;;;;;;;6.95;1.98;;;7.10;99.90;;;;;;5075135;28;20038;-91
2023/03/26 04:11:21;;;;;;;9.48;2.22;;;7.00;99.90;;;;;;5074763;28;20044;-91
2023/03/26 04:13:46;;;;;;;5.30;1.70;;;7.00;99.90;;;;;;5075962;28;20417;-91
2023/03/26 04:16:12;;;;;;;5.60;1.60;;;6.90;99.90;;;;;;5074456;28;20394;-91
2023/03/26 04:18:38;;;;;;;10.10;2.25;;;6.80;99.90;;;;;;5075317;28;20412;-90
2023/03/26 04:21:06;;;;;;;6.57;1.67;;;6.80;99.90;;;;;;5092929;28;20470;-91
2023/03/26 04:23:33;;;;;;;7.25;2.13;;;6.70;99.90;;;;;;5073901;28;20115;-91
2023/03/26 04:26:03;;;;;;;8.30;1.88;;;6.70;99.90;;;;;;5092542;28;20047;-91
2023/03/26 04:28:45;;;;;;;7.30;1.85;;;6.60;99.90;;;;;;5074546;28;20044;-92
2023/03/26 04:31:14;;;;;;;11.30;2.78;;;6.60;99.90;;;;;;5074569;28;20055;-91
2023/03/26 04:33:45;;;;;;;8.43;1.88;;;6.50;99.90;;;;;;5092436;28;20047;-91
2023/03/26 04:36:12;;;;;;;8.38;1.88;;;6.50;99.90;;;;;;5073457;28;20040;-91
2023/03/26 04:38:45;;;;;;;7.22;1.85;;;6.50;99.90;;;;;;5074896;28;20408;-91
2023/03/26 04:41:12;;;;;;;8.15;1.70;;;6.40;99.90;;;;;;5090989;28;20404;-91
2023/03/26 04:43:41;;;;;;;7.25;1.75;;;6.40;99.90;;;;;;5091879;28;20047;-91
2023/03/26 04:46:09;;;;;;;9.00;1.85;;;6.30;99.90;;;;;;5075392;28;20044;-91
2023/03/26 04:48:37;;;;;;;8.18;2.17;;;6.30;99.90;;;;;;5073626;28;20031;-91
2023/03/26 04:51:06;;;;;;;4.82;1.83;;;6.30;99.90;;;;;;5074977;28;20493;-91
2023/03/26 04:53:34;;;;;;;9.55;2.10;;;6.30;99.90;;;;;;5091590;28;20066;-91
2023/03/26 04:56:09;;;;;;;7.28;2.20;;;6.30;99.90;;;;;;5091348;28;20040;-91
2023/03/26 04:58:34;;;;;;;7.35;2.00;;;6.30;99.90;;;;;;5074342;28;20115;-91
2023/03/26 05:01:02;;;;;;;7.28;1.70;;;6.30;99.90;;;;;;5073890;28;20059;-92
2023/03/26 05:03:30;;;;;;;6.82;1.80;;;6.30;99.90;;;;;;5074928;28;20554;-91
2023/03/26 05:05:58;;;;;;;11.13;2.00;;;6.30;99.90;;;;;;5074097;28;20118;-92
2023/03/26 05:08:25;;;;;;;5.57;1.67;;;6.30;99.90;;;;;;5091281;28;20056;-91
2023/03/26 05:10:51;;;;;;;5.72;1.95;;;6.30;99.90;;;;;;5074679;28;20473;-91
2023/03/26 05:13:17;;;;;;;7.03;1.80;;;6.40;99.90;;;;;;5073267;28;20528;-91
2023/03/26 05:15:42;;;;;;;12.95;2.83;;;6.30;99.90;;;;;;5074529;28;20075;-91
2023/03/26 05:18:08;;;;;;;7.95;2.20;;;6.40;99.90;;;;;;5090653;28;20075;-90
2023/03/26 05:20:34;;;;;;;7.85;2.38;;;6.40;99.90;;;;;;5074499;28;20396;-91
2023/03/26 05:23:00;;;;;;;9.55;2.33;;;6.40;99.90;;;;;;5091620;28;20032;-91
2023/03/26 05:25:26;;;;;;;8.25;2.50;;;6.50;99.90;;;;;;5090412;28;20409;-91
2023/03/26 05:27:52;;;;;;;7.55;2.40;;;6.50;99.90;;;;;;5091125;28;20035;-91
2023/03/26 05:30:19;;;;;;;12.57;2.65;;;6.50;99.90;;;;;;5091067;28;20563;-91
2023/03/26 05:32:50;;;;;;;9.23;2.70;;;6.60;99.90;;;;;;5088770;28;20127;-91
2023/03/26 05:35:17;;;;;;;12.15;3.35;;;6.60;99.90;;;;;;5090054;28;20040;-91
2023/03/26 05:37:44;;;;;;;13.35;3.00;;;6.70;99.90;;;;;;5071575;28;20086;-91
2023/03/26 05:40:12;;;;;;;9.32;3.00;;;6.70;99.90;;;;;;5090376;28;20051;-91
2023/03/26 05:42:39;;;;;;;8.77;2.60;;;6.70;99.90;;;;;;5072563;28;20035;-91
2023/03/26 05:45:10;;;;;;;8.57;2.58;;;6.80;99.90;;;;;;5073204;28;20032;-90
2023/03/26 05:47:35;;;;;;;10.25;2.58;;;6.80;99.90;;;;;;5090293;28;20489;-91
2023/03/26 05:50:01;;;;;;;7.18;2.08;;;6.80;99.90;;;;;;5090678;28;20053;-90
2023/03/26 05:52:27;;;;;;;11.38;2.40;;;6.80;99.90;;;;;;5073566;28;20123;-91
2023/03/26 05:54:53;;;;;;;8.13;2.63;;;6.90;99.90;;;;;;5073453;28;20040;-91
2023/03/26 05:57:21;;;;;;;7.80;2.40;;;6.90;99.90;;;;;;5074323;28;20044;-91
2023/03/26 05:59:47;;;;;;;11.30;2.83;;;6.90;99.90;;;;;;5073192;28;20054;-91
2023/03/26 06:02:12;;;;;;;9.25;2.58;;;6.90;99.90;;;;;;5074015;28;20115;-90
2023/03/26 06:04:39;;;;;;;8.18;2.42;;;7.00;99.90;;;;;;5089993;28;20066;-91
2023/03/26 06:07:11;;;;;;;7.38;2.33;;;7.00;99.90;;;;;;5073134;28;20036;-91
2023/03/26 06:09:38;;;;;;;11.03;2.60;;;7.00;99.90;;;;;;5090365;28;20040;-91
2023/03/26 06:12:05;;;;;;;11.07;2.40;;;7.10;99.90;;;;;;5073283;28;20313;-91
2023/03/26 06:14:31;;;;;;;8.40;2.60;;;7.10;99.90;;;;;;5073659;28;20042;-91
2023/03/26 06:16:56;;;;;;;8.52;2.33;;;7.10;99.90;;;;;;5072270;28;20670;-90
2023/03/26 06:19:22;;;;;;;9.35;2.42;;;7.10;99.90;;;;;;5073248;28;20032;-91
2023/03/26 06:21:48;;;;;;;8.38;3.10;;;7.10;99.90;;;;;;5072730;28;20028;-91
2023/03/26 06:24:15;;;;;;;8.88;2.13;;;7.20;99.90;;;;;;5074009;28;20036;-91
2023/03/26 06:26:41;;;;;;;8.93;2.53;;;7.20;99.90;;;;;;5073897;28;20051;-90
2023/03/26 06:29:07;;;;;;;7.72;2.47;;;7.20;99.90;;;;;;5072806;28;20089;-91
2023/03/26 06:31:33;;;;;;;6.68;2.20;;;7.20;99.90;;;;;;5073841;28;20113;-91
2023/03/26 06:33:59;;;;;;;11.98;2.60;;;7.30;99.90;;;;;;5072644;28;20489;-91
2023/03/26 06:36:24;;;;;;;9.52;2.40;;;7.30;99.90;;;;;;5073349;28;20051;-90
2023/03/26 06:38:50;;;;;;;8.52;2.45;;;7.30;99.90;;;;;;5089864;28;20036;-90
2023/03/26 06:41:16;;;;;;;9.88;2.50;;;7.40;99.90;;;;;;5073464;28;20052;-90
2023/03/26 06:43:42;;;;;;;11.00;2.50;;;7.40;99.90;;;;;;5090121;28;20039;-90
2023/03/26 06:46:08;;;;;;;8.82;3.20;;;7.40;99.90;;;;;;5075006;28;20089;-90
2023/03/26 06:48:34;;;;;;;10.02;2.90;;;7.40;99.90;;;;;;5077061;28;20039;-91
2023/03/26 06:50:59;;;;;;;9.27;2.83;;;7.50;99.90;;;;;;5077366;28;20048;-91
2023/03/26 06:53:25;;;;;;;10.13;2.97;;;7.50;99.90;;;;;;5073685;28;20082;-90
2023/03/26 06:55:52;;;;;;;9.73;2.58;;;7.50;99.90;;;;;;5087202;28;20394;-91
2023/03/26 06:58:19;;;;;;;10.80;2.97;;;7.50;99.90;;;;;;5099726;28;20059;-90
2023/03/26 07:00:45;;;;;;;9.27;2.65;;;7.60;99.90;;;;;;5100116;28;20050;-91
2023/03/26 07:03:10;;;;;;;11.52;2.92;;;7.60;99.90;;;;;;5082894;28;20498;-91
2023/03/26 07:05:37;;;;;;;12.50;2.75;;;7.70;99.90;;;;;;5099827;28;20024;-91
2023/03/26 07:08:02;;;;;;;8.80;2.20;;;7.70;99.90;;;;;;5081708;28;20521;-91
2023/03/26 07:10:28;;;;;;;10.00;2.70;;;7.70;99.90;;;;;;5104201;28;20042;-91
2023/03/26 07:12:54;;;;;;;13.55;2.88;;;7.80;99.90;;;;;;5076873;28;20441;-91
2023/03/26 07:15:19;;;;;;;16.42;3.08;;;7.80;99.90;;;;;;5093871;28;20386;-91
2023/03/26 07:17:45;;;;;;;18.33;3.40;;;7.90;99.90;;;;;;5075741;28;20037;-90
2023/03/26 07:20:11;;;;;;;12.38;3.03;;;7.90;99.90;;;;;;5076746;28;20032;-91
2023/03/26 07:22:37;;;;;;;13.70;2.75;;;8.00;99.90;;;;;;5089834;28;20468;-91
2023/03/26 07:25:03;;;;;;;10.38;2.40;;;8.00;99.90;;;;;;5097629;28;20036;-91
2023/03/26 07:27:35;;;;;;;14.90;2.92;;;8.10;99.90;;;;;;5099215;28;20032;-92
2023/03/26 07:30:42;;;;;;;10.10;2.83;;;8.10;99.90;;;;;;5084994;28;20032;-91
2023/03/26 07:33:30;;;;;;;11.70;2.45;;;8.10;99.90;;;;;;5090978;28;20126;-92
2023/03/26 07:36:07;;;;;;;13.95;2.60;;;8.20;99.90;;;;;;5076395;28;20078;-91
2023/03/26 07:38:45;;;;;;;13.95;2.25;;;8.20;99.90;;;;;;5075962;28;20055;-92
2023/03/26 07:41:43;;;;;;;19.38;2.97;;;8.20;99.90;;;;;;5092717;28;20040;-91
2023/03/26 07:44:36;;;;;;;10.52;2.53;;;8.30;99.90;;;;;;5091876;28;20050;-92
2023/03/26 07:47:09;;;;;;;11.48;2.42;;;8.30;99.90;;;;;;5092111;28;20066;-90
2023/03/26 07:49:36;;;;;;;9.82;2.33;;;8.40;99.90;;;;;;5083963;28;20037;-91
2023/03/26 07:52:02;;;;;;;9.70;2.10;;;8.40;99.90;;;;;;5069133;28;20068;-91
2023/03/26 07:54:28;;;;;;;18.20;4.13;;;8.50;99.90;;;;;;5082648;28;20071;-92
2023/03/26 07:57:17;;;;;;;14.02;2.47;;;8.50;99.90;;;;;;5060950;28;20040;-91
2023/03/26 07:59:53;;;;;;;15.27;2.33;;;8.50;99.90;;;;;;5092591;28;20105;-92
2023/03/26 08:02:27;;;;;;;16.20;2.67;;;8.60;99.90;;;;;;5093397;28;20066;-91
2023/03/26 08:05:24;;;;;;;13.88;2.22;;;8.60;99.90;;;;;;5075239;28;20040;-92
2023/03/26 08:08:09;;;;;;;13.93;2.42;;;8.60;99.90;;;;;;5075663;28;20043;-91
2023/03/26 08:11:12;;;;;;;18.45;3.17;;;8.60;99.90;;;;;;5074535;28;20040;-91
2023/03/26 08:14:03;;;;;;;17.83;2.60;;;8.60;99.90;;;;;;5093149;28;20040;-91
2023/03/26 08:16:32;;;;;;;8.90;1.98;;;8.60;99.90;;;;;;5075459;28;20044;-92
2023/03/26 08:19:10;;;;;;;11.63;2.97;;;8.60;99.90;;;;;;5075569;28;20036;-92
2023/03/26 08:22:06;;;;;;;18.30;2.70;;;8.60;99.90;;;;;;5075964;28;20032;-93
2023/03/26 08:24:52;;;;;;;13.32;2.70;;;8.70;99.90;;;;;;5087707;28;20047;-92
2023/03/26 08:27:40;;;;;;;12.80;2.08;;;8.70;99.90;;;;;;5092319;28;20047;-93
2023/03/26 08:30:25;;;;;;;13.95;2.90;;;8.70;99.90;;;;;;5075220;28;20040;-93
2023/03/26 08:32:57;;;;;;;21.48;3.35;;;8.80;99.90;;;;;;5092324;28;20047;-94
2023/03/26 08:35:24;;;;;;;17.95;2.80;;;8.80;99.90;;;;;;5068821;28;20054;-96
2023/03/26 08:37:50;;;;;;;15.43;3.20;;;8.80;99.90;;;;;;5064249;28;20060;-91
2023/03/26 08:40:44;;;;;;;16.38;3.00;;;8.80;99.90;;;;;;5080741;28;20032;-91
2023/03/26 08:43:40;;;;;;;14.25;2.85;;;8.80;99.90;;;;;;5090958;28;20039;-94
2023/03/26 08:46:18;;;;;;;14.70;3.08;;;8.90;99.90;;;;;;5067403;28;20449;-93
2023/03/26 08:48:59;;;;;;;13.00;2.38;;;8.90;99.90;;;;;;5072294;28;20136;-94
2023/03/26 08:51:40;;;;;;;14.00;2.67;;;8.90;99.90;;;;;;5075783;28;20035;-91
2023/03/26 08:54:26;;;;;;;11.40;2.50;;;9.00;99.90;;;;;;5090923;28;20572;-93
2023/03/26 08:57:26;;;;;;;24.60;3.70;;;9.00;99.90;;;;;;5074572;28;20076;-91
2023/03/26 09:00:01;;;;;;;14.55;2.22;;;9.00;99.90;;;;;;5071063;28;20032;-91
2023/03/26 09:03:01;;;;;;;12.65;2.38;;;9.10;99.90;;;;;;5086410;28;20122;-94
2023/03/26 09:05:47;;;;;;;17.02;2.72;;;9.10;99.90;;;;;;5075768;28;20491;-93
2023/03/26 09:08:32;;;;;;;16.85;2.85;;;9.10;99.90;;;;;;5073464;28;20123;-94
2023/03/26 09:11:01;;;;;;;12.93;2.25;;;9.00;99.90;;;;;;5074912;28;20036;-93
2023/03/26 09:13:52;;;;;;;16.35;2.83;;;9.10;99.90;;;;;;5074182;28;20043;-94
2023/03/26 09:16:33;;;;;;;14.13;2.13;;;9.10;99.90;;;;;;5074995;28;20089;-94
2023/03/26 09:19:11;;;;;;;12.93;2.88;;;9.20;99.90;;;;;;5091377;28;20035;-94
2023/03/26 09:22:04;;;;;;;13.05;2.28;;;9.20;99.90;;;;;;5070867;28;20028;-93
2023/03/26 09:24:44;;;;;;;11.23;2.00;;;9.20;99.90;;;;;;5065040;28;20093;-94
2023/03/26 09:27:31;;;;;;;12.73;2.92;;;9.30;99.90;;;;;;5067025;28;20142;-94
2023/03/26 09:30:19;;;;;;;11.40;2.35;;;9.30;99.90;;;;;;5082134;28;20044;-95
2023/03/26 09:33:20;;;;;;;13.02;2.83;;;9.30;99.90;;;;;;5082910;28;20097;-95
2023/03/26 09:35:54;;;;;;;9.85;2.17;;;9.30;99.90;;;;;;5064935;28;20062;-94
2023/03/26 09:38:44;;;;;;;13.77;2.20;;;9.30;99.90;;;;;;5079661;28;20028;-95
2023/03/26 09:41:14;;;;;;;9.98;2.78;;;9.30;99.90;;;;;;5106834;28;20574;-95
2023/03/26 09:43:55;;;;;;;15.43;2.45;;;9.20;99.90;;;;;;5090839;28;20688;-95
2023/03/26 09:46:21;;;;;;;18.85;3.20;;;9.30;99.90;;;;;;5069848;28;20460;-94
2023/03/26 09:48:57;;;;;;;14.30;2.22;;;9.30;99.90;;;;;;5074787;28;20083;-95
2023/03/26 09:51:33;;;;;;;11.95;2.42;;;9.30;99.90;;;;;;5067139;28;20058;-95
2023/03/26 09:54:36;;;;;;;13.50;2.50;;;9.30;99.90;;;;;;5063655;28;20043;-95
2023/03/26 09:57:19;;;;;;;16.27;2.35;;;9.40;99.90;;;;;;5081689;28;20142;-94
2023/03/26 09:59:56;;;;;;;16.13;3.05;;;9.40;99.90;;;;;;5083282;28;20059;-93
2023/03/26 10:02:31;;;;;;;15.70;2.78;;;9.50;99.90;;;;;;5064596;28;20050;-94
2023/03/26 10:05:20;;;;;;;14.48;2.38;;;9.60;99.90;;;;;;5086881;28;20071;-94
2023/03/26 10:08:15;;;;;;;18.48;3.10;;;9.60;99.90;;;;;;5102101;28;20035;-94
2023/03/26 10:11:27;;;;;;;14.98;3.17;;;9.70;99.90;;;;;;5080207;28;20051;-94
2023/03/26 10:14:22;;;;;;;17.05;2.55;;;9.70;99.90;;;;;;5032401;28;20168;-96
2023/03/26 10:17:04;;;;;;;23.60;2.90;;;9.80;99.90;;;;;;5030074;28;20041;-94
2023/03/26 10:19:53;;;;;;;12.50;2.50;;;9.90;99.90;;;;;;5016678;28;20040;-95
2023/03/26 10:22:41;;;;;;;15.15;2.33;;;10.00;99.90;;;;;;5031429;28;20067;-94
2023/03/26 10:25:32;;;;;;;10.23;2.40;;;10.10;99.90;;;;;;5037192;28;20422;-94
2023/03/26 10:28:13;;;;;;;15.45;2.78;;;10.20;99.90;;;;;;5035399;28;20033;-96
2023/03/26 10:31:04;;;;;;;12.93;3.08;;;10.30;99.90;;;;;;5039421;28;20765;-94
2023/03/26 10:33:51;;;;;;;12.23;2.00;;;10.30;99.90;;;;;;5022561;28;20029;-94
2023/03/26 10:36:28;;;;;;;12.25;2.13;;;10.40;99.90;;;;;;5038337;28;20041;-95
2023/03/26 10:39:09;;;;;;;16.58;2.40;;;10.40;99.90;;;;;;5037693;28;20068;-96
2023/03/26 10:41:52;;;;;;;16.42;2.75;;;10.40;99.90;;;;;;5039943;28;20091;-95
2023/03/26 10:44:51;;;;;;;11.15;2.15;;;10.50;99.90;;;;;;5017040;28;20469;-95
2023/03/26 10:47:50;;;;;;;17.52;2.55;;;10.50;99.90;;;;;;5022398;28;20536;-95
2023/03/26 10:50:19;;;;;;;8.95;2.05;;;10.50;99.90;;;;;;5064915;28;20040;-94
2023/03/26 10:52:54;;;;;;;12.38;2.33;;;10.50;99.90;;;;;;5080209;28;20123;-95
2023/03/26 10:55:35;;;;;;;12.30;2.13;;;10.70;99.90;;;;;;5083572;28;20548;-96
2023/03/26 10:58:31;;;;;;;13.70;2.88;;;10.80;99.90;;;;;;5094814;28;20048;-96
2023/03/26 11:01:31;;;;;;;13.07;2.67;;;10.80;99.90;;;;;;5079662;28;20039;-96
2023/03/26 11:04:14;;;;;;;11.77;2.25;;;10.90;99.90;;;;;;5080917;28;20036;-96
2023/03/26 11:06:46;;;;;;;13.68;2.88;;;11.10;99.90;;;;;;5098662;28;20447;-95
2023/03/26 11:09:23;;;;;;;18.10;4.83;;;11.00;99.90;;;;;;5097933;28;20077;-96
2023/03/26 11:12:12;;;;;;;15.35;2.45;;;11.00;99.70;;;;;;5096162;28;20331;-96
2023/03/26 11:14:52;;;;;;;18.05;2.00;;;11.00;97.30;;;;;;5048925;28;20048;-95
2023/03/26 11:17:30;;;;;;;15.93;2.25;;;11.00;99.40;;;;;;5080833;28;20501;-95
2023/03/26 11:20:12;;;;;;;14.13;2.40;;;11.00;97.40;;;;;;5081517;28;20561;-95
2023/03/26 11:23:21;;;;;;;15.90;2.25;;;11.00;97.90;;;;;;5080291;28;20062;-96
2023/03/26 11:26:01;;;;;;;12.38;3.30;;;10.90;95.70;;;;;;5098265;28;20485;-95
2023/03/26 11:28:57;;;;;;;11.43;2.08;;;10.90;98.90;;;;;;5079306;28;20040;-94
2023/03/26 11:31:28;;;;;;;14.70;2.10;;;10.90;97.90;;;;;;5077422;28;20028;-95
2023/03/26 11:34:02;;;;;;;14.35;2.78;;;10.90;99.30;;;;;;5068836;28;20119;-94
2023/03/26 11:36:35;;;;;;;10.20;2.10;;;11.00;98.90;;;;;;5100724;28;20115;-95
2023/03/26 11:39:07;;;;;;;11.77;1.75;;;11.00;96.40;;;;;;5067019;28;20385;-95
2023/03/26 11:41:33;;;;;;;15.02;3.65;;;11.00;97.40;;;;;;5072462;28;20371;-93
2023/03/26 11:44:12;;;;;;;14.23;2.15;;;11.00;97.90;;;;;;5098747;28;20600;-94
2023/03/26 11:46:43;;;;;;;15.55;3.03;;;11.00;96.20;;;;;;5070382;28;20032;-93
2023/03/26 11:49:11;;;;;;;11.32;1.90;;;11.10;96.50;;;;;;5087269;28;20040;-95
2023/03/26 11:51:42;;;;;;;14.05;2.60;;;11.00;95.60;;;;;;5104526;28;20032;-94
2023/03/26 11:54:11;;;;;;;12.52;2.38;;;10.90;93.40;;;;;;5069058;28;20459;-94
2023/03/26 11:57:02;;;;;;;19.15;2.33;;;10.90;94.30;;;;;;5065849;28;20036;-95
2023/03/26 11:59:42;;;;;;;12.10;2.60;;;10.90;93.30;;;;;;5082527;28;20028;-95
2023/03/26 12:02:08;;;;;;;13.57;3.58;;;10.80;92.90;;;;;;5086709;28;20811;-95
2023/03/26 12:04:36;;;;;;;12.48;1.98;;;10.90;93.70;;;;;;5085603;28;20040;-95
2023/03/26 12:07:16;;;;;;;11.52;2.08;;;10.90;93.50;;;;;;5070639;28;20039;-95
2023/03/26 12:09:55;;;;;;;12.43;2.22;;;11.00;91.70;;;;;;5082549;28;20089;-95
2023/03/26 12:12:28;;;;;;;12.68;2.97;;;11.00;91.90;;;;;;5085839;28;20064;-94
2023/03/26 12:14:54;;;;;;;;;;;11.10;92.00;;;;;;5065369;28;20043;-95
2023/03/26 12:17:32;;;;;;;16.13;2.30;;;11.20;91.10;;;;;;5063867;28;20434;-95
2023/03/26 12:20:00;;;;;;;12.73;2.15;;;11.30;92.50;;;;;;5067216;28;20036;-94
2023/03/26 12:22:34;;;;;;;12.95;2.08;;;11.40;92.50;;;;;;5108231;28;20032;-95
2023/03/26 12:25:23;;;;;;;11.73;2.17;;;11.50;92.40;;;;;;5066268;28;20044;-95
2023/03/26 12:27:49;;;;;;;9.45;1.88;;;11.60;91.20;;;;;;5104560;28;20040;-95
2023/03/26 12:30:24;;;;;;;10.63;1.98;;;11.60;91.00;;;;;;5106446;28;20048;-93
2023/03/26 12:32:54;;;;;;;11.52;1.90;;;11.70;90.70;;;;;;5076231;28;20044;-95
2023/03/26 12:35:26;;;;;;;13.52;2.60;;;11.60;89.90;;;;;;5093203;28;20063;-95
2023/03/26 12:37:54;;;;;;;10.13;1.83;;;11.60;88.40;;;;;;5092534;28;20126;-95
2023/03/26 12:40:26;;;;;;;13.10;2.08;;;11.60;89.00;;;;;;5076064;28;20354;-94
2023/03/26 12:43:00;;;;;;;13.40;1.77;;;11.50;86.90;;;;;;5091664;28;20036;-95
2023/03/26 12:45:40;;;;;;;10.68;1.60;;;11.50;86.90;;;;;;5075767;28;20036;-95
2023/03/26 12:48:09;;;;;;;13.57;2.33;;;11.40;87.20;;;;;;5074722;28;20627;-96
2023/03/26 12:50:53;;;;;;;12.85;1.95;;;11.50;87.20;;;;;;5076384;28;20161;-93
2023/03/26 12:53:43;;;;;;;14.60;2.53;;;11.40;85.70;;;;;;5074878;28;20043;-94
2023/03/26 12:56:18;;;;;;;11.63;2.10;;;11.40;84.80;;;;;;5092972;28;20048;-96
2023/03/26 12:58:56;;;;;;;10.38;2.28;;;11.50;86.10;;;;;;5075474;28;20036;-96
2023/03/26 13:01:49;;;;;;;13.27;2.28;;;11.50;86.00;;;;;;5074465;28;20040;-95
2023/03/26 13:04:33;;;;;;;;;;;11.50;84.70;;;;;;5061260;28;20041;-95
2023/03/26 13:07:21;;;;;;;12.57;1.85;;;11.50;82.90;;;;;;5088784;28;19985;-95
2023/03/26 13:09:57;;;;;;;11.20;2.20;;;11.50;86.00;;;;;;5092721;28;20123;-95
2023/03/26 13:12:53;;;;;;;12.02;2.08;;;11.40;86.10;;;;;;5075011;28;20089;-96
2023/03/26 13:15:44;;;;;;;21.58;2.88;;;11.40;85.10;;;;;;5075860;28;20062;-96
2023/03/26 13:18:29;;;;;;;15.90;2.55;;;11.30;84.30;;;;;;5073577;28;20146;-95
2023/03/26 13:21:02;;;;;;;13.40;2.60;;;11.20;82.80;;;;;;5088845;28;20086;-96
2023/03/26 13:23:42;;;;;;;;;;;11.20;84.00;;;;;;5094029;28;20043;-95
2023/03/26 13:26:40;;;;;;;9.93;1.83;;;11.10;79.60;;;;;;5082253;28;19939;-96